createdAt,value
2018-12-04T00:00:24.372Z,2.30
2018-12-04T00:02:52.440Z,3.07
2018-12-04T00:05:20.475Z,1.53
2018-12-04T00:07:48.510Z,1.07
2018-12-04T00:10:16.539Z,1.73
2018-12-04T00:12:44.583Z,2.07
2018-12-04T00:15:12.701Z,4.67
2018-12-04T00:17:40.774Z,2.03
2018-12-04T00:20:08.831Z,2.00
2018-12-04T00:22:36.935Z,1.60
2018-12-04T00:25:05.102Z,2.67
2018-12-04T00:27:33.174Z,1.87
2018-12-04T00:30:01.247Z,1.50
2018-12-04T00:32:29.324Z,0.60
2018-12-04T00:34:57.796Z,4.27
2018-12-04T00:37:25.834Z,2.43
2018-12-04T00:39:53.868Z,1.00
2018-12-04T00:42:21.902Z,0.93
2018-12-04T00:44:49.945Z,1.20
2018-12-04T00:47:18.002Z,2.63
2018-12-04T00:49:46.050Z,1.17
2018-12-04T00:52:14.107Z,1.63
2018-12-04T00:54:42.573Z,1.00
2018-12-04T00:57:10.657Z,2.00
2018-12-04T00:59:38.740Z,2.00
2018-12-04T01:02:06.785Z,0.60
2018-12-04T01:04:34.819Z,1.17
2018-12-04T01:07:02.931Z,1.80
2018-12-04T01:09:30.966Z,1.27
2018-12-04T01:11:59.104Z,1.10
2018-12-04T01:14:27.487Z,0.97
2018-12-04T01:16:55.512Z,1.87
2018-12-04T01:19:23.563Z,0.60
2018-12-04T01:21:51.699Z,0.80
2018-12-04T01:24:19.759Z,0.73
2018-12-04T01:26:47.812Z,2.67
2018-12-04T01:29:16.068Z,1.90
2018-12-04T01:31:44.264Z,2.97
2018-12-04T01:34:12.306Z,1.13
2018-12-04T01:36:40.335Z,3.60
2018-12-04T01:39:08.431Z,1.30
2018-12-04T01:41:36.466Z,1.53
2018-12-04T01:44:04.522Z,2.97
2018-12-04T01:46:32.632Z,1.77
2018-12-04T01:49:00.662Z,1.83
2018-12-04T01:51:28.707Z,2.40
2018-12-04T01:53:56.744Z,2.40
2018-12-04T01:56:24.799Z,2.23
2018-12-04T01:58:52.832Z,3.07
2018-12-04T02:01:20.878Z,4.30
2018-12-04T02:03:49.039Z,1.43
2018-12-04T02:06:17.094Z,1.80
2018-12-04T02:08:45.151Z,1.00
2018-12-04T02:11:13.181Z,2.20
2018-12-04T02:13:41.222Z,1.43
2018-12-04T02:16:09.270Z,2.73
2018-12-04T02:18:37.303Z,3.20
2018-12-04T02:21:05.415Z,3.33
2018-12-04T02:23:33.639Z,2.40
2018-12-04T02:26:01.680Z,4.33
2018-12-04T02:28:31.439Z,1.30
2018-12-04T02:30:59.504Z,4.83
2018-12-04T02:33:27.645Z,2.40
2018-12-04T02:35:55.915Z,3.33
2018-12-04T02:38:23.998Z,2.00
2018-12-04T02:40:52.053Z,1.67
2018-12-04T02:43:20.148Z,2.33
2018-12-04T02:45:48.433Z,4.10
2018-12-04T02:48:16.485Z,8.37
2018-12-04T02:50:44.780Z,3.80
2018-12-04T02:53:13.464Z,5.33
2018-12-04T02:55:41.508Z,3.43
2018-12-04T02:58:09.557Z,3.97
2018-12-04T03:00:37.599Z,4.57
2018-12-04T03:03:06.053Z,4.87
2018-12-04T03:05:34.095Z,4.53
2018-12-04T03:08:02.346Z,2.90
2018-12-04T03:10:30.370Z,2.90
2018-12-04T03:12:58.428Z,1.43
2018-12-04T03:15:26.763Z,1.33
2018-12-04T03:17:54.806Z,1.53
2018-12-04T03:20:22.877Z,1.90
2018-12-04T03:22:51.150Z,4.90
2018-12-04T03:25:19.943Z,4.20
2018-12-04T03:27:48.527Z,4.00
2018-12-04T03:30:16.559Z,1.57
2018-12-04T03:32:44.605Z,2.73
2018-12-04T03:35:12.722Z,1.73
2018-12-04T03:37:41.029Z,1.33
2018-12-04T03:40:09.241Z,1.53
2018-12-04T03:42:37.900Z,3.50
2018-12-04T03:45:06.010Z,2.53
2018-12-04T03:47:34.043Z,2.03
2018-12-04T03:50:02.079Z,7.63
2018-12-04T03:52:30.119Z,4.10
2018-12-04T03:54:58.256Z,5.30
2018-12-04T03:57:26.301Z,1.27
2018-12-04T03:59:54.355Z,3.30
2018-12-04T04:02:22.622Z,1.23
2018-12-04T04:04:50.671Z,5.67
2018-12-04T04:07:18.723Z,2.30
2018-12-04T04:09:47.559Z,2.13
2018-12-04T04:12:15.773Z,4.13
2018-12-04T04:14:43.830Z,5.27
2018-12-04T04:17:11.879Z,1.03
2018-12-04T04:19:40.025Z,2.50
2018-12-04T04:22:08.470Z,1.67
2018-12-04T04:24:36.558Z,3.33
2018-12-04T04:27:04.955Z,2.83
2018-12-04T04:29:32.999Z,2.50
2018-12-04T04:32:01.037Z,2.30
2018-12-04T04:34:29.172Z,2.90
2018-12-04T04:36:57.202Z,1.03
2018-12-04T04:39:25.307Z,2.83
2018-12-04T04:41:53.408Z,1.60
2018-12-04T04:44:21.466Z,2.80
2018-12-04T04:46:49.516Z,4.67
2018-12-04T04:49:17.564Z,3.90
2018-12-04T04:51:46.592Z,4.13
2018-12-04T04:54:14.668Z,2.97
2018-12-04T04:56:42.702Z,4.70
2018-12-04T04:59:10.743Z,2.83
2018-12-04T05:01:38.798Z,2.90
2018-12-04T05:04:06.820Z,4.50
2018-12-04T05:06:34.855Z,5.50
2018-12-04T05:09:03.960Z,4.00
2018-12-04T05:11:32.006Z,4.33
2018-12-04T05:14:00.039Z,2.10
2018-12-04T05:16:28.397Z,5.07
2018-12-04T05:18:56.532Z,3.97
2018-12-04T05:21:24.686Z,5.30
2018-12-04T05:23:52.781Z,2.90
2018-12-04T05:26:20.852Z,4.10
2018-12-04T05:28:48.907Z,5.13
2018-12-04T05:31:17.004Z,3.23
2018-12-04T05:33:45.372Z,4.60
2018-12-04T05:36:13.449Z,2.00
2018-12-04T05:38:41.502Z,2.30
2018-12-04T05:41:09.591Z,4.87
2018-12-04T05:43:37.867Z,2.93
2018-12-04T05:46:06.573Z,3.23
2018-12-04T05:48:35.257Z,3.00
2018-12-04T05:51:03.833Z,4.50
2018-12-04T05:53:32.958Z,5.27
2018-12-04T05:56:01.119Z,1.80
2018-12-04T05:58:29.517Z,1.67
2018-12-04T06:00:57.561Z,2.87
2018-12-04T06:03:25.637Z,3.03
2018-12-04T06:05:54.416Z,2.63
2018-12-04T06:08:22.454Z,3.37
2018-12-04T06:10:50.659Z,1.63
2018-12-04T06:13:18.756Z,1.57
2018-12-04T06:15:47.120Z,2.90
2018-12-04T06:18:15.173Z,2.23
2018-12-04T06:20:43.229Z,1.90
2018-12-04T06:23:11.340Z,1.80
2018-12-04T06:25:40.042Z,4.20
2018-12-04T06:28:08.136Z,0.80
2018-12-04T06:30:36.176Z,3.23
2018-12-04T06:33:04.246Z,0.90
2018-12-04T06:35:32.766Z,0.90
2018-12-04T06:38:00.804Z,0.60
2018-12-04T06:40:28.877Z,0.90
2018-12-04T06:42:56.975Z,1.77
2018-12-04T06:45:25.735Z,2.83
2018-12-04T06:47:54.309Z,1.40
2018-12-04T06:50:22.339Z,1.83
2018-12-04T06:52:50.383Z,1.23
2018-12-04T06:55:19.026Z,0.93
2018-12-04T06:57:48.763Z,0.97
2018-12-04T07:00:17.557Z,1.53
2018-12-04T07:02:45.629Z,0.90
2018-12-04T07:05:13.698Z,2.80
2018-12-04T07:07:41.751Z,2.30
2018-12-04T07:10:09.850Z,1.00
2018-12-04T07:12:38.412Z,1.57
2018-12-04T07:15:07.027Z,0.97
2018-12-04T07:17:35.086Z,1.10
2018-12-04T07:20:03.387Z,1.10
2018-12-04T07:22:31.428Z,1.33
2018-12-04T07:24:59.483Z,2.60
2018-12-04T07:27:27.536Z,1.33
2018-12-04T07:29:55.702Z,2.23
2018-12-04T07:32:23.811Z,1.30
2018-12-04T07:34:51.909Z,2.33
2018-12-04T07:37:19.942Z,1.30
2018-12-04T07:39:47.991Z,2.77
2018-12-04T07:42:16.016Z,1.10
2018-12-04T07:44:44.086Z,4.77
2018-12-04T07:47:12.139Z,1.90
2018-12-04T07:49:40.239Z,3.30
2018-12-04T07:52:08.979Z,1.33
2018-12-04T07:54:37.112Z,1.33
2018-12-04T07:57:05.171Z,1.63
2018-12-04T07:59:33.254Z,1.80
2018-12-04T08:02:01.338Z,1.40
2018-12-04T08:04:30.086Z,3.10
2018-12-04T08:06:58.128Z,3.37
2018-12-04T08:09:26.287Z,1.37
2018-12-04T08:11:54.352Z,1.27
2018-12-04T08:14:22.376Z,2.20
2018-12-04T08:16:52.095Z,2.10
2018-12-04T08:19:20.290Z,1.50
2018-12-04T08:21:48.331Z,1.60
2018-12-04T08:24:16.436Z,2.87
2018-12-04T08:26:44.936Z,1.30
2018-12-04T08:29:12.969Z,1.00
2018-12-04T08:31:40.998Z,1.70
2018-12-04T08:34:09.134Z,1.20
2018-12-04T08:36:37.899Z,1.57
2018-12-04T08:39:06.398Z,1.40
2018-12-04T08:41:34.795Z,2.33
2018-12-04T08:44:03.859Z,5.80
2018-12-04T08:46:31.978Z,2.67
2018-12-04T08:49:00.023Z,2.47
2018-12-04T08:51:28.097Z,2.97
2018-12-04T08:53:56.388Z,1.70
2018-12-04T08:56:24.423Z,1.70
2018-12-04T08:58:52.875Z,1.30
2018-12-04T09:01:21.003Z,2.27
2018-12-04T09:03:49.982Z,2.20
2018-12-04T09:06:18.022Z,2.13
2018-12-04T09:08:46.223Z,1.60
2018-12-04T09:11:14.637Z,2.13
2018-12-04T09:13:43.016Z,1.67
2018-12-04T09:16:11.094Z,1.53
2018-12-04T09:18:40.021Z,2.30
2018-12-04T09:21:08.745Z,1.70
2018-12-04T09:23:37.089Z,2.40
2018-12-04T09:26:05.346Z,1.70
2018-12-04T09:28:33.724Z,1.63
2018-12-04T09:31:01.987Z,2.10
2018-12-04T09:33:30.781Z,2.33
2018-12-04T09:35:59.055Z,2.10
2018-12-04T09:38:27.124Z,2.00
2018-12-04T09:40:55.180Z,1.97
2018-12-04T09:43:23.280Z,1.93
2018-12-04T09:45:51.343Z,1.90
2018-12-04T09:48:19.417Z,2.00
2018-12-04T09:50:47.489Z,1.77
2018-12-04T09:53:15.668Z,2.00
2018-12-04T09:55:43.751Z,1.50
2018-12-04T09:58:11.817Z,1.87
2018-12-04T10:00:39.882Z,2.20
2018-12-04T10:03:07.960Z,3.57
2018-12-04T10:05:35.991Z,2.03
2018-12-04T10:08:04.211Z,2.07
2018-12-04T10:10:32.260Z,2.20
2018-12-04T10:13:00.296Z,3.40
2018-12-04T10:15:28.435Z,2.60
2018-12-04T10:17:56.619Z,1.77
2018-12-04T10:20:24.725Z,1.67
2018-12-04T10:22:52.850Z,2.13
2018-12-04T10:25:21.454Z,1.93
2018-12-04T10:27:49.505Z,3.10
2018-12-04T10:30:17.575Z,1.60
2018-12-04T10:32:47.383Z,2.17
2018-12-04T10:35:15.412Z,2.07
2018-12-04T10:37:43.468Z,2.30
2018-12-04T10:40:11.503Z,4.30
2018-12-04T10:42:39.592Z,1.90
2018-12-04T10:45:07.767Z,2.40
2018-12-04T10:47:35.798Z,4.40
2018-12-04T10:50:04.536Z,1.80
2018-12-04T10:52:32.606Z,1.70
2018-12-04T10:55:00.643Z,2.00
2018-12-04T10:57:28.739Z,2.20
2018-12-04T10:59:56.872Z,1.93
2018-12-04T11:02:25.088Z,5.40
2018-12-04T11:04:53.168Z,2.10
2018-12-04T11:07:21.238Z,2.20
2018-12-04T11:09:49.326Z,2.27
2018-12-04T11:12:17.994Z,1.80
2018-12-04T11:14:46.027Z,3.70
2018-12-04T11:17:14.121Z,1.73
2018-12-04T11:19:42.436Z,2.70
2018-12-04T11:22:10.488Z,4.60
2018-12-04T11:24:38.559Z,2.57
2018-12-04T11:27:06.633Z,2.50
2018-12-04T11:29:34.704Z,2.43
2018-12-04T11:32:02.891Z,3.93
2018-12-04T11:34:30.943Z,10.80
2018-12-04T11:36:58.992Z,2.10
2018-12-04T11:39:27.141Z,2.83
2018-12-04T11:41:55.250Z,2.33
2018-12-04T11:44:24.165Z,3.93
2018-12-04T11:46:52.551Z,2.33
2018-12-04T11:49:20.622Z,3.83
2018-12-04T11:51:48.703Z,2.13
2018-12-04T11:54:16.789Z,2.63
2018-12-04T11:56:44.908Z,2.97
2018-12-04T11:59:13.276Z,2.90
2018-12-04T12:01:41.526Z,3.03
2018-12-04T12:04:09.554Z,4.50
2018-12-04T12:06:37.592Z,2.87
2018-12-04T12:09:07.261Z,4.50
2018-12-04T12:11:35.298Z,2.63
2018-12-04T12:14:03.397Z,2.80
2018-12-04T12:16:32.071Z,3.23
2018-12-04T12:19:00.157Z,3.97
2018-12-04T12:21:28.337Z,3.20
2018-12-04T12:23:56.399Z,2.67
2018-12-04T12:26:24.592Z,3.53
2018-12-04T12:28:52.620Z,3.80
2018-12-04T12:31:20.858Z,2.90
2018-12-04T12:33:48.883Z,3.60
2018-12-04T12:36:16.944Z,3.13
2018-12-04T12:38:44.995Z,6.70
2018-12-04T12:41:13.019Z,3.53
2018-12-04T12:43:41.287Z,2.80
2018-12-04T12:46:09.732Z,3.60
2018-12-04T12:48:37.890Z,4.10
2018-12-04T12:51:05.991Z,3.03
2018-12-04T12:53:34.104Z,3.23
2018-12-04T12:56:02.148Z,3.83
2018-12-04T12:58:30.195Z,3.83
2018-12-04T13:00:58.583Z,4.87
2018-12-04T13:03:26.622Z,3.90
2018-12-04T13:05:54.792Z,3.33
2018-12-04T13:08:23.273Z,5.80
2018-12-04T13:10:51.908Z,4.53
2018-12-04T13:13:20.299Z,4.77
2018-12-04T13:15:48.607Z,5.30
2018-12-04T13:18:16.670Z,7.33
2018-12-04T13:20:44.989Z,5.10
2018-12-04T13:23:13.143Z,4.23
2018-12-04T13:25:41.188Z,4.43
2018-12-04T13:28:09.288Z,4.23
2018-12-04T13:30:37.804Z,4.40
2018-12-04T13:33:05.839Z,3.43
2018-12-04T13:35:33.879Z,3.70
2018-12-04T13:38:02.601Z,4.63
2018-12-04T13:40:30.650Z,4.23
2018-12-04T13:42:58.950Z,3.53
2018-12-04T13:45:27.020Z,4.03
2018-12-04T13:47:55.295Z,3.83
2018-12-04T13:50:23.488Z,4.33
2018-12-04T13:52:51.766Z,5.10
2018-12-04T13:55:20.054Z,4.97
2018-12-04T13:57:50.769Z,9.27
2018-12-04T14:00:18.238Z,8.97
2018-12-04T14:02:46.522Z,7.00
2018-12-04T14:05:14.875Z,5.13
2018-12-04T14:07:43.637Z,5.33
2018-12-04T14:10:12.248Z,5.30
2018-12-04T14:12:40.866Z,6.33
2018-12-04T14:15:09.185Z,8.97
2018-12-04T14:17:38.119Z,7.40
2018-12-04T14:20:07.218Z,8.47
2018-12-04T14:22:35.300Z,7.40
2018-12-04T14:25:03.881Z,7.30
2018-12-04T14:27:31.954Z,9.80
2018-12-04T14:30:00.057Z,10.73
2018-12-04T14:32:28.411Z,4.97
2018-12-04T14:34:57.429Z,6.63
2018-12-04T14:37:25.488Z,5.60
2018-12-04T14:39:54.467Z,4.17
2018-12-04T14:42:22.944Z,4.83
2018-12-04T14:44:51.119Z,3.23
2018-12-04T14:47:19.190Z,3.70
2018-12-04T14:49:47.258Z,3.40
2018-12-04T14:52:15.329Z,3.30
2018-12-04T14:54:43.400Z,6.30
2018-12-04T14:57:12.067Z,5.07
2018-12-04T14:59:40.131Z,5.63
2018-12-04T15:02:08.263Z,6.17
2018-12-04T15:04:36.522Z,5.40
2018-12-04T15:07:04.580Z,3.50
2018-12-04T15:09:33.340Z,3.30
2018-12-04T15:12:01.603Z,9.47
2018-12-04T15:14:29.891Z,6.97
2018-12-04T15:17:03.875Z,4.03
2018-12-04T15:19:32.351Z,3.57
2018-12-04T15:22:00.455Z,5.20
2018-12-04T15:24:28.780Z,4.37
2018-12-04T15:26:57.078Z,5.50
2018-12-04T15:29:25.398Z,4.03
2018-12-04T15:31:54.125Z,5.53
2018-12-04T15:34:22.454Z,5.77
2018-12-04T15:36:56.510Z,4.87
2018-12-04T15:39:20.805Z,4.00
2018-12-04T15:41:48.891Z,6.40
2018-12-04T15:44:17.006Z,5.37
2018-12-04T15:46:45.261Z,6.60
2018-12-04T15:49:13.322Z,4.17
2018-12-04T15:51:42.322Z,5.00
2018-12-04T15:54:10.393Z,4.30
2018-12-04T15:56:38.745Z,5.13
2018-12-04T15:59:07.153Z,4.70
2018-12-04T16:01:35.248Z,4.23
2018-12-04T16:04:03.374Z,4.47
2018-12-04T16:06:31.415Z,6.03
2018-12-04T16:08:59.598Z,8.33
2018-12-04T16:11:27.903Z,4.53
2018-12-04T16:13:56.687Z,5.90
2018-12-04T16:16:24.718Z,5.50
2018-12-04T16:18:52.765Z,5.73
2018-12-04T16:21:20.831Z,4.50
2018-12-04T16:23:48.874Z,6.53
2018-12-04T16:26:17.163Z,6.20
2018-12-04T16:28:45.456Z,4.23
2018-12-04T16:31:13.525Z,4.60
2018-12-04T16:33:41.588Z,5.13
2018-12-04T16:36:09.799Z,7.10
2018-12-04T16:38:37.876Z,7.93
2018-12-04T16:41:06.086Z,9.70
2018-12-04T16:43:34.270Z,6.73
2018-12-04T16:46:02.475Z,6.10
2018-12-04T16:48:30.524Z,6.50
2018-12-04T16:50:58.591Z,7.90
2018-12-04T16:53:26.691Z,7.70
2018-12-04T16:55:54.729Z,4.77
2018-12-04T16:58:22.768Z,5.63
2018-12-04T17:00:50.814Z,6.47
2018-12-04T17:03:19.591Z,7.17
2018-12-04T17:05:47.657Z,7.37
2018-12-04T17:08:15.683Z,8.10
2018-12-04T17:10:43.810Z,10.10
2018-12-04T17:13:11.844Z,6.70
2018-12-04T17:15:39.971Z,7.10
2018-12-04T17:18:08.021Z,6.63
2018-12-04T17:20:36.623Z,8.60
2018-12-04T17:23:04.676Z,9.77
2018-12-04T17:25:32.989Z,8.20
2018-12-04T17:28:01.044Z,7.27
2018-12-04T17:30:29.121Z,6.10
2018-12-04T17:32:57.990Z,9.67
2018-12-04T17:35:26.472Z,6.17
2018-12-04T17:37:54.563Z,5.90
2018-12-04T17:40:22.619Z,8.70
2018-12-04T17:42:51.123Z,9.40
2018-12-04T17:45:19.596Z,7.10
2018-12-04T17:47:47.634Z,6.57
2018-12-04T17:50:15.954Z,8.00
2018-12-04T17:52:43.984Z,6.97
2018-12-04T17:55:12.131Z,6.73
2018-12-04T17:57:40.176Z,5.90
2018-12-04T18:00:10.580Z,6.20
2018-12-04T18:02:39.481Z,6.43
2018-12-04T18:05:07.528Z,6.83
2018-12-04T18:07:35.594Z,6.93
2018-12-04T18:10:04.536Z,7.67
2018-12-04T18:12:33.341Z,7.50
2018-12-04T18:15:01.403Z,6.90
2018-12-04T18:17:29.477Z,7.87
2018-12-04T18:19:57.513Z,10.03
2018-12-04T18:22:25.708Z,12.93
2018-12-04T18:24:53.803Z,12.00
2018-12-04T18:27:21.868Z,10.03
2018-12-04T18:29:49.933Z,13.30
2018-12-04T18:32:18.005Z,14.13
2018-12-04T18:34:46.207Z,12.47
2018-12-04T18:37:14.275Z,14.57
2018-12-04T18:39:42.340Z,12.73
2018-12-04T18:42:10.416Z,15.90
2018-12-04T18:44:38.560Z,13.70
2018-12-04T18:47:06.600Z,12.43
2018-12-04T18:49:35.250Z,14.03
2018-12-04T18:52:03.315Z,13.10
2018-12-04T18:54:32.243Z,12.80
2018-12-04T18:57:00.499Z,11.30
2018-12-04T18:59:28.603Z,11.80
2018-12-04T19:01:56.732Z,11.83
2018-12-04T19:04:24.777Z,15.23
2018-12-04T19:06:52.881Z,12.60
2018-12-04T19:09:20.945Z,11.27
2018-12-04T19:11:48.989Z,17.30
2018-12-04T19:14:17.067Z,14.47
2018-12-04T19:16:45.932Z,12.90
2018-12-04T19:19:14.062Z,15.70
2018-12-04T19:21:42.240Z,17.80
2018-12-04T19:24:10.857Z,14.00
2018-12-04T19:26:38.918Z,11.73
2018-12-04T19:29:07.078Z,14.00
2018-12-04T19:31:35.640Z,12.33
2018-12-04T19:34:03.702Z,11.83
2018-12-04T19:36:31.789Z,14.80
2018-12-04T19:38:59.858Z,12.87
2018-12-04T19:41:28.211Z,13.03
2018-12-04T19:43:56.716Z,11.50
2018-12-04T19:46:25.284Z,15.70
2018-12-04T19:48:54.033Z,16.20
2018-12-04T19:51:22.196Z,18.87
2018-12-04T19:53:50.299Z,15.63
2018-12-04T19:56:18.433Z,19.73
2018-12-04T19:58:46.476Z,21.30
2018-12-04T20:01:14.553Z,21.10
2018-12-04T20:03:42.603Z,25.53
2018-12-04T20:06:10.656Z,17.13
2018-12-04T20:08:44.280Z,15.93
2018-12-04T20:11:12.355Z,14.77
2018-12-04T20:13:40.450Z,19.63
2018-12-04T20:16:09.239Z,17.30
2018-12-04T20:18:37.298Z,15.67
2018-12-04T20:21:05.512Z,18.67
2018-12-04T20:23:33.659Z,15.80
2018-12-04T20:26:01.859Z,14.67
2018-12-04T20:28:29.910Z,15.63
2018-12-04T20:30:57.981Z,16.47
2018-12-04T20:33:26.088Z,20.10
2018-12-04T20:35:54.144Z,17.93
2018-12-04T20:38:22.450Z,17.97
2018-12-04T20:40:50.494Z,17.43
2018-12-04T20:43:19.309Z,19.47
2018-12-04T20:45:47.356Z,16.77
2018-12-04T20:48:15.726Z,21.23
2018-12-04T20:50:43.793Z,23.03
2018-12-04T20:53:11.886Z,20.37
2018-12-04T20:55:40.057Z,17.80
2018-12-04T20:58:08.145Z,21.30
2018-12-04T21:00:36.177Z,18.50
2018-12-04T21:03:04.220Z,21.10
2018-12-04T21:05:32.377Z,20.00
2018-12-04T21:08:00.429Z,22.73
2018-12-04T21:10:28.491Z,18.60
2018-12-04T21:12:56.753Z,19.70
2018-12-04T21:15:24.848Z,21.20
2018-12-04T21:17:52.885Z,18.60
2018-12-04T21:20:20.999Z,20.30
2018-12-04T21:22:49.365Z,21.67
2018-12-04T21:25:17.438Z,19.40
2018-12-04T21:27:51.424Z,25.00
2018-12-04T21:30:25.285Z,19.23
2018-12-04T21:32:59.708Z,25.60
2018-12-04T21:35:33.260Z,22.67
2018-12-04T21:38:06.954Z,24.70
2018-12-04T21:40:40.767Z,25.67
2018-12-04T21:43:14.392Z,21.17
2018-12-04T21:45:48.479Z,20.50
2018-12-04T21:48:17.028Z,23.53
2018-12-04T21:50:45.195Z,20.97
2018-12-04T21:53:13.216Z,24.70
2018-12-04T21:55:41.288Z,24.17
2018-12-04T21:58:09.351Z,21.90
2018-12-04T22:00:37.410Z,22.90
2018-12-04T22:03:05.451Z,22.63
2018-12-04T22:05:33.542Z,21.10
2018-12-04T22:08:01.592Z,19.53
2018-12-04T22:10:29.849Z,17.00
2018-12-04T22:12:58.298Z,20.93
2018-12-04T22:15:26.415Z,16.57
2018-12-04T22:17:54.585Z,18.00
2018-12-04T22:20:22.638Z,15.80
2018-12-04T22:22:50.779Z,18.63
2018-12-04T22:25:18.918Z,19.17
2018-12-04T22:27:47.210Z,19.63
2018-12-04T22:30:15.290Z,20.20
2018-12-04T22:32:43.339Z,22.40
2018-12-04T22:35:12.081Z,19.73
2018-12-04T22:37:40.680Z,26.97
2018-12-04T22:40:08.824Z,18.40
2018-12-04T22:42:36.909Z,16.80
2018-12-04T22:45:11.214Z,16.07
2018-12-04T22:47:39.390Z,20.07
2018-12-04T22:50:07.500Z,15.30
2018-12-04T22:52:35.632Z,14.83
2018-12-04T22:55:03.767Z,16.70
2018-12-04T22:57:31.847Z,17.80
2018-12-04T23:00:00.018Z,17.33
2018-12-04T23:02:28.199Z,17.63
2018-12-04T23:04:56.263Z,21.20
2018-12-04T23:07:24.322Z,22.07
2018-12-04T23:09:53.094Z,19.93
2018-12-04T23:12:21.452Z,17.53
2018-12-04T23:14:49.541Z,19.60
2018-12-04T23:17:17.759Z,24.00
2018-12-04T23:19:45.820Z,19.10
2018-12-04T23:22:13.880Z,20.67
2018-12-04T23:24:41.940Z,20.57
2018-12-04T23:27:10.044Z,19.70
2018-12-04T23:29:38.080Z,17.10
2018-12-04T23:32:06.214Z,19.50
2018-12-04T23:34:35.211Z,20.77
2018-12-04T23:37:03.569Z,20.00
2018-12-04T23:39:31.957Z,20.30
2018-12-04T23:42:00.330Z,16.87
2018-12-04T23:44:28.448Z,17.20
2018-12-04T23:46:56.592Z,16.53
2018-12-04T23:49:26.187Z,16.83
2018-12-04T23:51:54.716Z,16.03
2018-12-04T23:54:24.028Z,15.40
2018-12-04T23:56:52.063Z,14.27
2018-12-04T23:59:20.100Z,14.30
